sensor_id;sensor_type;location;lat;lon;timestamp;P1;durP1;ratioP1;P2;durP2;ratioP2
23716;SDS011;22094;52.130;5.598;2023-09-07T00:00:47;16.67;;;14.98;;
23716;SDS011;22094;52.130;5.598;2023-09-07T00:03:13;16.90;;;15.13;;
23716;SDS011;22094;52.130;5.598;2023-09-07T00:05:39;17.27;;;15.45;;
23716;SDS011;22094;52.130;5.598;2023-09-07T00:08:05;17.17;;;15.48;;
23716;SDS011;22094;52.130;5.598;2023-09-07T00:10:32;18.70;;;16.08;;
23716;SDS011;22094;52.130;5.598;2023-09-07T00:13:00;18.92;;;16.67;;
23716;SDS011;22094;52.130;5.598;2023-09-07T00:15:27;16.50;;;14.90;;
23716;SDS011;22094;52.130;5.598;2023-09-07T00:17:53;17.70;;;15.82;;
23716;SDS011;22094;52.130;5.598;2023-09-07T00:20:19;16.88;;;15.20;;
23716;SDS011;22094;52.130;5.598;2023-09-07T00:22:46;17.65;;;15.05;;
23716;SDS011;22094;52.130;5.598;2023-09-07T00:25:12;15.77;;;14.07;;
23716;SDS011;22094;52.130;5.598;2023-09-07T00:27:38;15.65;;;14.07;;
23716;SDS011;22094;52.130;5.598;2023-09-07T00:30:04;15.88;;;14.23;;
23716;SDS011;22094;52.130;5.598;2023-09-07T00:32:40;15.25;;;13.75;;
23716;SDS011;22094;52.130;5.598;2023-09-07T00:35:06;17.35;;;14.77;;
23716;SDS011;22094;52.130;5.598;2023-09-07T00:37:32;17.08;;;14.35;;
23716;SDS011;22094;52.130;5.598;2023-09-07T00:39:58;14.02;;;12.82;;
23716;SDS011;22094;52.130;5.598;2023-09-07T00:42:23;18.00;;;13.80;;
23716;SDS011;22094;52.130;5.598;2023-09-07T00:44:49;15.43;;;13.93;;
23716;SDS011;22094;52.130;5.598;2023-09-07T00:47:15;15.93;;;13.88;;
23716;SDS011;22094;52.130;5.598;2023-09-07T00:49:41;15.63;;;13.90;;
23716;SDS011;22094;52.130;5.598;2023-09-07T00:52:07;15.40;;;13.88;;
23716;SDS011;22094;52.130;5.598;2023-09-07T00:54:34;15.00;;;13.60;;
23716;SDS011;22094;52.130;5.598;2023-09-07T00:57:01;15.85;;;13.82;;
23716;SDS011;22094;52.130;5.598;2023-09-07T00:59:27;17.08;;;13.88;;
23716;SDS011;22094;52.130;5.598;2023-09-07T01:01:53;15.98;;;14.25;;
23716;SDS011;22094;52.130;5.598;2023-09-07T01:04:18;17.42;;;15.45;;
23716;SDS011;22094;52.130;5.598;2023-09-07T01:06:50;17.20;;;15.52;;
23716;SDS011;22094;52.130;5.598;2023-09-07T01:09:23;17.50;;;15.75;;
23716;SDS011;22094;52.130;5.598;2023-09-07T01:11:51;17.70;;;15.80;;
23716;SDS011;22094;52.130;5.598;2023-09-07T01:14:17;17.50;;;15.70;;
23716;SDS011;22094;52.130;5.598;2023-09-07T01:16:43;18.77;;;15.23;;
23716;SDS011;22094;52.130;5.598;2023-09-07T01:19:09;16.95;;;14.90;;
23716;SDS011;22094;52.130;5.598;2023-09-07T01:21:36;16.55;;;14.48;;
23716;SDS011;22094;52.130;5.598;2023-09-07T01:24:06;16.83;;;15.00;;
23716;SDS011;22094;52.130;5.598;2023-09-07T01:26:34;16.45;;;14.63;;
23716;SDS011;22094;52.130;5.598;2023-09-07T01:29:01;16.40;;;14.70;;
23716;SDS011;22094;52.130;5.598;2023-09-07T01:31:27;16.83;;;15.13;;
23716;SDS011;22094;52.130;5.598;2023-09-07T01:33:53;16.98;;;14.80;;
23716;SDS011;22094;52.130;5.598;2023-09-07T01:36:18;16.13;;;14.57;;
23716;SDS011;22094;52.130;5.598;2023-09-07T01:38:44;16.33;;;14.63;;
23716;SDS011;22094;52.130;5.598;2023-09-07T01:41:10;16.08;;;14.48;;
23716;SDS011;22094;52.130;5.598;2023-09-07T01:43:35;16.17;;;14.57;;
23716;SDS011;22094;52.130;5.598;2023-09-07T01:46:02;16.13;;;14.43;;
23716;SDS011;22094;52.130;5.598;2023-09-07T01:48:28;16.10;;;14.00;;
23716;SDS011;22094;52.130;5.598;2023-09-07T01:50:53;17.50;;;15.35;;
23716;SDS011;22094;52.130;5.598;2023-09-07T01:53:19;18.45;;;16.58;;
23716;SDS011;22094;52.130;5.598;2023-09-07T01:55:45;17.75;;;15.93;;
23716;SDS011;22094;52.130;5.598;2023-09-07T01:58:11;18.25;;;16.33;;
23716;SDS011;22094;52.130;5.598;2023-09-07T02:00:39;18.02;;;16.20;;
23716;SDS011;22094;52.130;5.598;2023-09-07T02:03:05;19.10;;;16.63;;
23716;SDS011;22094;52.130;5.598;2023-09-07T02:05:31;18.40;;;16.52;;
23716;SDS011;22094;52.130;5.598;2023-09-07T02:07:57;18.35;;;16.40;;
23716;SDS011;22094;52.130;5.598;2023-09-07T02:10:23;17.15;;;15.38;;
23716;SDS011;22094;52.130;5.598;2023-09-07T02:12:49;17.80;;;15.00;;
23716;SDS011;22094;52.130;5.598;2023-09-07T02:15:14;17.50;;;15.73;;
23716;SDS011;22094;52.130;5.598;2023-09-07T02:17:40;17.50;;;15.55;;
23716;SDS011;22094;52.130;5.598;2023-09-07T02:20:10;16.92;;;15.07;;
23716;SDS011;22094;52.130;5.598;2023-09-07T02:22:37;16.77;;;15.13;;
23716;SDS011;22094;52.130;5.598;2023-09-07T02:25:03;17.65;;;15.63;;
23716;SDS011;22094;52.130;5.598;2023-09-07T02:27:30;17.25;;;15.55;;
23716;SDS011;22094;52.130;5.598;2023-09-07T02:29:57;16.15;;;14.63;;
23716;SDS011;22094;52.130;5.598;2023-09-07T02:32:22;18.30;;;15.10;;
23716;SDS011;22094;52.130;5.598;2023-09-07T02:34:48;15.98;;;14.45;;
23716;SDS011;22094;52.130;5.598;2023-09-07T02:37:14;15.68;;;14.07;;
23716;SDS011;22094;52.130;5.598;2023-09-07T02:39:41;15.68;;;14.15;;
23716;SDS011;22094;52.130;5.598;2023-09-07T02:42:07;17.50;;;14.65;;
23716;SDS011;22094;52.130;5.598;2023-09-07T02:44:33;15.95;;;14.23;;
23716;SDS011;22094;52.130;5.598;2023-09-07T02:46:58;19.88;;;14.80;;
23716;SDS011;22094;52.130;5.598;2023-09-07T02:49:24;15.88;;;14.20;;
23716;SDS011;22094;52.130;5.598;2023-09-07T02:51:49;16.10;;;13.90;;
23716;SDS011;22094;52.130;5.598;2023-09-07T02:54:15;16.27;;;14.05;;
23716;SDS011;22094;52.130;5.598;2023-09-07T02:56:41;16.75;;;14.13;;
23716;SDS011;22094;52.130;5.598;2023-09-07T02:59:06;16.08;;;14.45;;
23716;SDS011;22094;52.130;5.598;2023-09-07T03:01:32;16.83;;;15.15;;
23716;SDS011;22094;52.130;5.598;2023-09-07T03:03:57;15.05;;;13.65;;
23716;SDS011;22094;52.130;5.598;2023-09-07T03:06:23;15.73;;;14.13;;
23716;SDS011;22094;52.130;5.598;2023-09-07T03:08:48;16.10;;;14.48;;
23716;SDS011;22094;52.130;5.598;2023-09-07T03:11:14;18.15;;;14.25;;
23716;SDS011;22094;52.130;5.598;2023-09-07T03:13:40;17.30;;;15.15;;
23716;SDS011;22094;52.130;5.598;2023-09-07T03:16:07;17.10;;;15.30;;
23716;SDS011;22094;52.130;5.598;2023-09-07T03:18:32;17.75;;;15.85;;
23716;SDS011;22094;52.130;5.598;2023-09-07T03:21:00;22.10;;;16.00;;
23716;SDS011;22094;52.130;5.598;2023-09-07T03:23:30;16.85;;;15.02;;
23716;SDS011;22094;52.130;5.598;2023-09-07T03:25:57;18.80;;;15.52;;
23716;SDS011;22094;52.130;5.598;2023-09-07T03:28:23;17.98;;;14.30;;
23716;SDS011;22094;52.130;5.598;2023-09-07T03:30:50;17.55;;;15.05;;
23716;SDS011;22094;52.130;5.598;2023-09-07T03:33:16;16.27;;;14.68;;
23716;SDS011;22094;52.130;5.598;2023-09-07T03:35:42;17.38;;;15.38;;
23716;SDS011;22094;52.130;5.598;2023-09-07T03:38:07;16.42;;;14.70;;
23716;SDS011;22094;52.130;5.598;2023-09-07T03:40:33;16.33;;;14.73;;
23716;SDS011;22094;52.130;5.598;2023-09-07T03:42:59;15.88;;;14.27;;
23716;SDS011;22094;52.130;5.598;2023-09-07T03:45:24;19.17;;;15.60;;
23716;SDS011;22094;52.130;5.598;2023-09-07T03:47:50;16.58;;;14.88;;
23716;SDS011;22094;52.130;5.598;2023-09-07T03:50:16;16.88;;;15.23;;
23716;SDS011;22094;52.130;5.598;2023-09-07T03:52:41;17.40;;;15.63;;
23716;SDS011;22094;52.130;5.598;2023-09-07T03:55:07;16.95;;;15.30;;
23716;SDS011;22094;52.130;5.598;2023-09-07T03:57:33;17.35;;;15.30;;
23716;SDS011;22094;52.130;5.598;2023-09-07T03:59:59;17.20;;;15.55;;
23716;SDS011;22094;52.130;5.598;2023-09-07T04:02:25;18.33;;;16.38;;
23716;SDS011;22094;52.130;5.598;2023-09-07T04:04:51;18.80;;;16.80;;
23716;SDS011;22094;52.130;5.598;2023-09-07T04:07:18;19.15;;;17.08;;
23716;SDS011;22094;52.130;5.598;2023-09-07T04:09:44;25.38;;;17.88;;
23716;SDS011;22094;52.130;5.598;2023-09-07T04:12:10;20.35;;;17.88;;
23716;SDS011;22094;52.130;5.598;2023-09-07T04:14:36;20.25;;;18.13;;
23716;SDS011;22094;52.130;5.598;2023-09-07T04:17:03;20.15;;;18.15;;
23716;SDS011;22094;52.130;5.598;2023-09-07T04:19:32;21.65;;;19.00;;
23716;SDS011;22094;52.130;5.598;2023-09-07T04:22:04;21.00;;;18.63;;
23716;SDS011;22094;52.130;5.598;2023-09-07T04:24:29;23.20;;;18.80;;
23716;SDS011;22094;52.130;5.598;2023-09-07T04:26:58;22.20;;;19.15;;
23716;SDS011;22094;52.130;5.598;2023-09-07T04:29:25;20.88;;;18.63;;
23716;SDS011;22094;52.130;5.598;2023-09-07T04:31:51;20.58;;;18.38;;
23716;SDS011;22094;52.130;5.598;2023-09-07T04:34:17;23.65;;;19.95;;
23716;SDS011;22094;52.130;5.598;2023-09-07T04:36:42;22.75;;;19.42;;
23716;SDS011;22094;52.130;5.598;2023-09-07T04:39:08;21.05;;;18.85;;
23716;SDS011;22094;52.130;5.598;2023-09-07T04:41:34;25.60;;;20.17;;
23716;SDS011;22094;52.130;5.598;2023-09-07T04:43:59;24.17;;;20.30;;
23716;SDS011;22094;52.130;5.598;2023-09-07T04:46:25;23.55;;;19.52;;
23716;SDS011;22094;52.130;5.598;2023-09-07T04:48:50;24.35;;;19.70;;
23716;SDS011;22094;52.130;5.598;2023-09-07T04:51:16;22.35;;;19.65;;
23716;SDS011;22094;52.130;5.598;2023-09-07T04:53:41;24.95;;;21.17;;
23716;SDS011;22094;52.130;5.598;2023-09-07T04:56:07;24.00;;;20.20;;
23716;SDS011;22094;52.130;5.598;2023-09-07T04:58:33;25.67;;;21.60;;
23716;SDS011;22094;52.130;5.598;2023-09-07T05:01:02;24.13;;;20.80;;
23716;SDS011;22094;52.130;5.598;2023-09-07T05:03:32;24.92;;;21.55;;
23716;SDS011;22094;52.130;5.598;2023-09-07T05:05:58;23.60;;;20.98;;
23716;SDS011;22094;52.130;5.598;2023-09-07T05:08:24;24.23;;;21.55;;
23716;SDS011;22094;52.130;5.598;2023-09-07T05:10:56;26.05;;;21.67;;
23716;SDS011;22094;52.130;5.598;2023-09-07T05:13:23;26.55;;;20.75;;
23716;SDS011;22094;52.130;5.598;2023-09-07T05:15:49;24.80;;;20.40;;
23716;SDS011;22094;52.130;5.598;2023-09-07T05:18:16;25.13;;;20.40;;
23716;SDS011;22094;52.130;5.598;2023-09-07T05:20:43;25.13;;;21.05;;
23716;SDS011;22094;52.130;5.598;2023-09-07T05:23:11;26.08;;;20.13;;
23716;SDS011;22094;52.130;5.598;2023-09-07T05:25:47;25.98;;;21.05;;
23716;SDS011;22094;52.130;5.598;2023-09-07T05:28:15;24.75;;;22.05;;
23716;SDS011;22094;52.130;5.598;2023-09-07T05:30:41;24.85;;;22.13;;
23716;SDS011;22094;52.130;5.598;2023-09-07T05:33:10;24.90;;;22.15;;
23716;SDS011;22094;52.130;5.598;2023-09-07T05:35:37;27.02;;;22.73;;
23716;SDS011;22094;52.130;5.598;2023-09-07T05:38:04;29.73;;;23.52;;
23716;SDS011;22094;52.130;5.598;2023-09-07T05:40:33;28.75;;;22.63;;
23716;SDS011;22094;52.130;5.598;2023-09-07T05:42:59;29.58;;;23.77;;
23716;SDS011;22094;52.130;5.598;2023-09-07T05:45:25;24.95;;;22.45;;
23716;SDS011;22094;52.130;5.598;2023-09-07T05:47:50;22.08;;;19.13;;
23716;SDS011;22094;52.130;5.598;2023-09-07T05:50:16;20.63;;;16.20;;
23716;SDS011;22094;52.130;5.598;2023-09-07T05:52:42;14.02;;;12.57;;
23716;SDS011;22094;52.130;5.598;2023-09-07T05:55:07;14.23;;;11.77;;
23716;SDS011;22094;52.130;5.598;2023-09-07T05:57:33;13.45;;;9.90;;
23716;SDS011;22094;52.130;5.598;2023-09-07T05:59:58;12.40;;;10.10;;
23716;SDS011;22094;52.130;5.598;2023-09-07T06:02:24;12.30;;;8.60;;
23716;SDS011;22094;52.130;5.598;2023-09-07T06:04:50;10.90;;;8.75;;
23716;SDS011;22094;52.130;5.598;2023-09-07T06:07:15;14.63;;;9.32;;
23716;SDS011;22094;52.130;5.598;2023-09-07T06:09:41;14.75;;;9.90;;
23716;SDS011;22094;52.130;5.598;2023-09-07T06:12:06;14.85;;;10.18;;
23716;SDS011;22094;52.130;5.598;2023-09-07T06:14:32;17.00;;;10.60;;
23716;SDS011;22094;52.130;5.598;2023-09-07T06:16:58;16.88;;;11.45;;
23716;SDS011;22094;52.130;5.598;2023-09-07T06:19:23;12.45;;;11.25;;
23716;SDS011;22094;52.130;5.598;2023-09-07T06:21:49;13.48;;;11.90;;
23716;SDS011;22094;52.130;5.598;2023-09-07T06:24:14;17.33;;;12.02;;
23716;SDS011;22094;52.130;5.598;2023-09-07T06:26:40;13.30;;;11.80;;
23716;SDS011;22094;52.130;5.598;2023-09-07T06:29:07;17.08;;;13.20;;
23716;SDS011;22094;52.130;5.598;2023-09-07T06:31:33;15.63;;;12.18;;
23716;SDS011;22094;52.130;5.598;2023-09-07T06:33:58;15.52;;;12.80;;
23716;SDS011;22094;52.130;5.598;2023-09-07T06:36:24;19.15;;;13.57;;
23716;SDS011;22094;52.130;5.598;2023-09-07T06:38:50;15.90;;;13.00;;
23716;SDS011;22094;52.130;5.598;2023-09-07T06:41:15;17.67;;;12.77;;
23716;SDS011;22094;52.130;5.598;2023-09-07T06:43:41;15.80;;;12.57;;
23716;SDS011;22094;52.130;5.598;2023-09-07T06:46:07;14.15;;;12.57;;
23716;SDS011;22094;52.130;5.598;2023-09-07T06:48:33;15.65;;;12.68;;
23716;SDS011;22094;52.130;5.598;2023-09-07T06:51:03;14.07;;;12.10;;
23716;SDS011;22094;52.130;5.598;2023-09-07T06:53:29;16.48;;;12.50;;
23716;SDS011;22094;52.130;5.598;2023-09-07T06:56:02;14.65;;;12.52;;
23716;SDS011;22094;52.130;5.598;2023-09-07T06:58:28;15.20;;;11.70;;
23716;SDS011;22094;52.130;5.598;2023-09-07T07:01:00;14.32;;;12.13;;
23716;SDS011;22094;52.130;5.598;2023-09-07T07:03:27;15.68;;;12.57;;
23716;SDS011;22094;52.130;5.598;2023-09-07T07:05:54;14.35;;;12.35;;
23716;SDS011;22094;52.130;5.598;2023-09-07T07:08:20;13.68;;;12.18;;
23716;SDS011;22094;52.130;5.598;2023-09-07T07:10:45;13.70;;;11.27;;
23716;SDS011;22094;52.130;5.598;2023-09-07T07:13:11;15.07;;;11.20;;
23716;SDS011;22094;52.130;5.598;2023-09-07T07:15:36;14.20;;;9.85;;
23716;SDS011;22094;52.130;5.598;2023-09-07T07:18:02;10.70;;;9.35;;
23716;SDS011;22094;52.130;5.598;2023-09-07T07:20:42;10.80;;;9.40;;
23716;SDS011;22094;52.130;5.598;2023-09-07T07:23:08;13.55;;;8.27;;
23716;SDS011;22094;52.130;5.598;2023-09-07T07:25:35;9.45;;;8.27;;
23716;SDS011;22094;52.130;5.598;2023-09-07T07:28:02;16.17;;;7.88;;
23716;SDS011;22094;52.130;5.598;2023-09-07T07:30:35;9.77;;;8.13;;
23716;SDS011;22094;52.130;5.598;2023-09-07T07:33:01;10.77;;;7.88;;
23716;SDS011;22094;52.130;5.598;2023-09-07T07:35:32;10.82;;;8.02;;
23716;SDS011;22094;52.130;5.598;2023-09-07T07:38:03;10.30;;;7.72;;
23716;SDS011;22094;52.130;5.598;2023-09-07T07:40:31;8.32;;;7.43;;
23716;SDS011;22094;52.130;5.598;2023-09-07T07:42:56;12.98;;;7.30;;
23716;SDS011;22094;52.130;5.598;2023-09-07T07:45:22;10.32;;;7.70;;
23716;SDS011;22094;52.130;5.598;2023-09-07T07:47:48;9.48;;;7.10;;
23716;SDS011;22094;52.130;5.598;2023-09-07T07:50:14;10.43;;;6.90;;
23716;SDS011;22094;52.130;5.598;2023-09-07T07:52:40;9.10;;;7.22;;
23716;SDS011;22094;52.130;5.598;2023-09-07T07:55:06;10.75;;;6.95;;
23716;SDS011;22094;52.130;5.598;2023-09-07T07:57:33;7.72;;;6.28;;
23716;SDS011;22094;52.130;5.598;2023-09-07T07:59:58;9.77;;;6.95;;
23716;SDS011;22094;52.130;5.598;2023-09-07T08:02:24;9.93;;;6.57;;
23716;SDS011;22094;52.130;5.598;2023-09-07T08:04:49;9.20;;;6.82;;
23716;SDS011;22094;52.130;5.598;2023-09-07T08:07:15;6.97;;;6.30;;
23716;SDS011;22094;52.130;5.598;2023-09-07T08:09:41;9.13;;;6.70;;
23716;SDS011;22094;52.130;5.598;2023-09-07T08:12:07;10.00;;;6.47;;
23716;SDS011;22094;52.130;5.598;2023-09-07T08:14:33;7.55;;;6.68;;
23716;SDS011;22094;52.130;5.598;2023-09-07T08:16:58;6.78;;;6.07;;
23716;SDS011;22094;52.130;5.598;2023-09-07T08:19:24;7.30;;;6.15;;
23716;SDS011;22094;52.130;5.598;2023-09-07T08:21:50;6.82;;;6.18;;
23716;SDS011;22094;52.130;5.598;2023-09-07T08:24:16;6.90;;;6.05;;
23716;SDS011;22094;52.130;5.598;2023-09-07T08:26:42;6.82;;;6.13;;
23716;SDS011;22094;52.130;5.598;2023-09-07T08:29:08;6.70;;;5.85;;
23716;SDS011;22094;52.130;5.598;2023-09-07T08:31:35;6.07;;;5.47;;
23716;SDS011;22094;52.130;5.598;2023-09-07T08:34:04;8.88;;;5.45;;
23716;SDS011;22094;52.130;5.598;2023-09-07T08:36:31;6.43;;;5.20;;
23716;SDS011;22094;52.130;5.598;2023-09-07T08:39:02;7.53;;;5.00;;
23716;SDS011;22094;52.130;5.598;2023-09-07T08:41:30;7.20;;;5.30;;
23716;SDS011;22094;52.130;5.598;2023-09-07T08:43:57;6.13;;;5.50;;
23716;SDS011;22094;52.130;5.598;2023-09-07T08:46:23;8.75;;;5.07;;
23716;SDS011;22094;52.130;5.598;2023-09-07T08:48:49;10.50;;;4.85;;
23716;SDS011;22094;52.130;5.598;2023-09-07T08:51:16;7.40;;;4.20;;
23716;SDS011;22094;52.130;5.598;2023-09-07T08:53:43;7.50;;;4.55;;
23716;SDS011;22094;52.130;5.598;2023-09-07T08:56:11;4.90;;;3.97;;
23716;SDS011;22094;52.130;5.598;2023-09-07T08:58:38;7.38;;;4.00;;
23716;SDS011;22094;52.130;5.598;2023-09-07T09:01:05;6.85;;;4.05;;
23716;SDS011;22094;52.130;5.598;2023-09-07T09:03:31;4.30;;;3.90;;
23716;SDS011;22094;52.130;5.598;2023-09-07T09:05:57;3.63;;;3.33;;
23716;SDS011;22094;52.130;5.598;2023-09-07T09:08:22;3.47;;;3.17;;
23716;SDS011;22094;52.130;5.598;2023-09-07T09:10:59;3.65;;;3.35;;
23716;SDS011;22094;52.130;5.598;2023-09-07T09:13:31;4.55;;;3.60;;
23716;SDS011;22094;52.130;5.598;2023-09-07T09:16:01;3.40;;;3.10;;
23716;SDS011;22094;52.130;5.598;2023-09-07T09:18:26;6.40;;;3.25;;
23716;SDS011;22094;52.130;5.598;2023-09-07T09:20:54;3.78;;;2.90;;
23716;SDS011;22094;52.130;5.598;2023-09-07T09:23:20;3.28;;;2.80;;
23716;SDS011;22094;52.130;5.598;2023-09-07T09:25:47;5.43;;;2.95;;
23716;SDS011;22094;52.130;5.598;2023-09-07T09:28:13;4.05;;;2.58;;
23716;SDS011;22094;52.130;5.598;2023-09-07T09:30:39;7.05;;;3.00;;
23716;SDS011;22094;52.130;5.598;2023-09-07T09:33:08;8.13;;;3.20;;
23716;SDS011;22094;52.130;5.598;2023-09-07T09:35:35;4.82;;;2.85;;
23716;SDS011;22094;52.130;5.598;2023-09-07T09:38:01;6.32;;;3.13;;
23716;SDS011;22094;52.130;5.598;2023-09-07T09:40:30;3.78;;;2.90;;
23716;SDS011;22094;52.130;5.598;2023-09-07T09:42:58;3.40;;;2.83;;
23716;SDS011;22094;52.130;5.598;2023-09-07T09:45:26;3.20;;;2.90;;
23716;SDS011;22094;52.130;5.598;2023-09-07T09:47:53;7.68;;;3.10;;
23716;SDS011;22094;52.130;5.598;2023-09-07T09:50:21;4.55;;;3.30;;
23716;SDS011;22094;52.130;5.598;2023-09-07T09:52:48;3.33;;;2.80;;
23716;SDS011;22094;52.130;5.598;2023-09-07T09:55:14;4.85;;;3.05;;
23716;SDS011;22094;52.130;5.598;2023-09-07T09:57:40;5.05;;;3.00;;
23716;SDS011;22094;52.130;5.598;2023-09-07T10:00:06;5.38;;;2.70;;
23716;SDS011;22094;52.130;5.598;2023-09-07T10:02:43;3.67;;;2.72;;
23716;SDS011;22094;52.130;5.598;2023-09-07T10:05:13;4.50;;;3.13;;
23716;SDS011;22094;52.130;5.598;2023-09-07T10:07:42;3.38;;;2.90;;
23716;SDS011;22094;52.130;5.598;2023-09-07T10:10:12;5.07;;;2.90;;
23716;SDS011;22094;52.130;5.598;2023-09-07T10:12:42;4.65;;;3.20;;
23716;SDS011;22094;52.130;5.598;2023-09-07T10:15:24;4.13;;;2.97;;
23716;SDS011;22094;52.130;5.598;2023-09-07T10:18:08;3.88;;;3.03;;
23716;SDS011;22094;52.130;5.598;2023-09-07T10:23:13;3.33;;;3.03;;
23716;SDS011;22094;52.130;5.598;2023-09-07T10:25:40;4.90;;;2.70;;
23716;SDS011;22094;52.130;5.598;2023-09-07T10:28:07;4.00;;;2.88;;
23716;SDS011;22094;52.130;5.598;2023-09-07T10:31:05;5.15;;;3.00;;
23716;SDS011;22094;52.130;5.598;2023-09-07T10:33:51;5.25;;;3.13;;
23716;SDS011;22094;52.130;5.598;2023-09-07T10:36:24;5.72;;;2.80;;
23716;SDS011;22094;52.130;5.598;2023-09-07T10:38:51;5.38;;;3.55;;
23716;SDS011;22094;52.130;5.598;2023-09-07T10:41:18;4.13;;;3.05;;
23716;SDS011;22094;52.130;5.598;2023-09-07T10:43:50;6.60;;;3.08;;
23716;SDS011;22094;52.130;5.598;2023-09-07T10:46:18;5.63;;;3.10;;
23716;SDS011;22094;52.130;5.598;2023-09-07T10:48:45;4.05;;;2.97;;
23716;SDS011;22094;52.130;5.598;2023-09-07T10:51:15;5.78;;;3.20;;
23716;SDS011;22094;52.130;5.598;2023-09-07T10:53:41;6.07;;;2.80;;
23716;SDS011;22094;52.130;5.598;2023-09-07T10:56:07;4.18;;;3.10;;
23716;SDS011;22094;52.130;5.598;2023-09-07T10:58:35;3.83;;;3.00;;
23716;SDS011;22094;52.130;5.598;2023-09-07T11:01:06;5.47;;;2.75;;
23716;SDS011;22094;52.130;5.598;2023-09-07T11:03:32;4.20;;;3.20;;
23716;SDS011;22094;52.130;5.598;2023-09-07T11:08:24;4.30;;;3.10;;
23716;SDS011;22094;52.130;5.598;2023-09-07T11:10:50;5.18;;;3.00;;
23716;SDS011;22094;52.130;5.598;2023-09-07T11:13:17;3.40;;;3.10;;
23716;SDS011;22094;52.130;5.598;2023-09-07T11:15:43;6.28;;;3.90;;
23716;SDS011;22094;52.130;5.598;2023-09-07T11:18:09;3.10;;;2.80;;
23716;SDS011;22094;52.130;5.598;2023-09-07T11:20:35;4.53;;;3.05;;
23716;SDS011;22094;52.130;5.598;2023-09-07T11:23:02;6.05;;;3.10;;
23716;SDS011;22094;52.130;5.598;2023-09-07T11:25:34;3.60;;;2.90;;
23716;SDS011;22094;52.130;5.598;2023-09-07T11:28:02;5.70;;;2.65;;
23716;SDS011;22094;52.130;5.598;2023-09-07T11:30:28;4.32;;;2.90;;
23716;SDS011;22094;52.130;5.598;2023-09-07T11:33:04;3.88;;;2.83;;
23716;SDS011;22094;52.130;5.598;2023-09-07T11:35:31;3.33;;;3.00;;
23716;SDS011;22094;52.130;5.598;2023-09-07T11:37:58;3.33;;;3.08;;
23716;SDS011;22094;52.130;5.598;2023-09-07T11:40:30;4.78;;;3.08;;
23716;SDS011;22094;52.130;5.598;2023-09-07T11:42:56;3.20;;;2.83;;
23716;SDS011;22094;52.130;5.598;2023-09-07T11:45:22;4.10;;;3.10;;
23716;SDS011;22094;52.130;5.598;2023-09-07T11:47:48;4.53;;;3.25;;
23716;SDS011;22094;52.130;5.598;2023-09-07T11:50:16;4.00;;;3.10;;
23716;SDS011;22094;52.130;5.598;2023-09-07T11:52:42;4.60;;;2.83;;
23716;SDS011;22094;52.130;5.598;2023-09-07T11:55:08;3.72;;;3.38;;
23716;SDS011;22094;52.130;5.598;2023-09-07T11:57:35;6.47;;;3.28;;
23716;SDS011;22094;52.130;5.598;2023-09-07T12:00:01;3.03;;;2.83;;
23716;SDS011;22094;52.130;5.598;2023-09-07T12:02:29;5.63;;;2.90;;
23716;SDS011;22094;52.130;5.598;2023-09-07T12:04:55;4.03;;;3.00;;
23716;SDS011;22094;52.130;5.598;2023-09-07T12:07:21;5.07;;;3.10;;
23716;SDS011;22094;52.130;5.598;2023-09-07T12:09:47;3.55;;;3.03;;
23716;SDS011;22094;52.130;5.598;2023-09-07T12:12:13;4.47;;;2.85;;
23716;SDS011;22094;52.130;5.598;2023-09-07T12:14:39;6.60;;;3.45;;
23716;SDS011;22094;52.130;5.598;2023-09-07T12:17:05;6.30;;;3.42;;
23716;SDS011;22094;52.130;5.598;2023-09-07T12:19:31;3.60;;;3.20;;
23716;SDS011;22094;52.130;5.598;2023-09-07T12:21:58;5.20;;;3.15;;
23716;SDS011;22094;52.130;5.598;2023-09-07T12:24:24;4.97;;;2.78;;
23716;SDS011;22094;52.130;5.598;2023-09-07T12:26:50;4.13;;;3.05;;
23716;SDS011;22094;52.130;5.598;2023-09-07T12:29:16;3.30;;;3.00;;
23716;SDS011;22094;52.130;5.598;2023-09-07T12:31:42;6.00;;;3.00;;
23716;SDS011;22094;52.130;5.598;2023-09-07T12:34:08;3.80;;;2.70;;
23716;SDS011;22094;52.130;5.598;2023-09-07T12:36:34;3.28;;;2.88;;
23716;SDS011;22094;52.130;5.598;2023-09-07T12:38:59;4.53;;;3.10;;
23716;SDS011;22094;52.130;5.598;2023-09-07T12:41:29;4.10;;;2.83;;
23716;SDS011;22094;52.130;5.598;2023-09-07T12:43:58;3.38;;;2.83;;
23716;SDS011;22094;52.130;5.598;2023-09-07T12:46:24;3.65;;;2.58;;
23716;SDS011;22094;52.130;5.598;2023-09-07T12:48:50;3.95;;;2.90;;
23716;SDS011;22094;52.130;5.598;2023-09-07T12:51:16;8.07;;;3.08;;
23716;SDS011;22094;52.130;5.598;2023-09-07T12:53:41;3.85;;;2.47;;
23716;SDS011;22094;52.130;5.598;2023-09-07T12:56:07;4.20;;;2.97;;
23716;SDS011;22094;52.130;5.598;2023-09-07T12:58:33;3.92;;;2.72;;
23716;SDS011;22094;52.130;5.598;2023-09-07T13:00:59;3.40;;;3.05;;
23716;SDS011;22094;52.130;5.598;2023-09-07T13:03:25;6.70;;;3.03;;
23716;SDS011;22094;52.130;5.598;2023-09-07T13:05:51;4.10;;;3.17;;
23716;SDS011;22094;52.130;5.598;2023-09-07T13:08:17;2.83;;;2.60;;
23716;SDS011;22094;52.130;5.598;2023-09-07T13:10:43;4.03;;;2.85;;
23716;SDS011;22094;52.130;5.598;2023-09-07T13:13:09;5.68;;;3.00;;
23716;SDS011;22094;52.130;5.598;2023-09-07T13:15:35;3.15;;;2.85;;
23716;SDS011;22094;52.130;5.598;2023-09-07T13:18:01;4.30;;;2.85;;
23716;SDS011;22094;52.130;5.598;2023-09-07T13:20:27;3.25;;;2.88;;
23716;SDS011;22094;52.130;5.598;2023-09-07T13:22:53;3.05;;;2.75;;
23716;SDS011;22094;52.130;5.598;2023-09-07T13:25:19;3.17;;;2.88;;
23716;SDS011;22094;52.130;5.598;2023-09-07T13:27:45;4.63;;;2.95;;
23716;SDS011;22094;52.130;5.598;2023-09-07T13:30:10;4.22;;;2.80;;
23716;SDS011;22094;52.130;5.598;2023-09-07T13:32:37;3.55;;;2.85;;
23716;SDS011;22094;52.130;5.598;2023-09-07T13:35:03;4.38;;;3.13;;
23716;SDS011;22094;52.130;5.598;2023-09-07T13:37:29;3.53;;;2.92;;
23716;SDS011;22094;52.130;5.598;2023-09-07T13:39:56;4.88;;;3.30;;
23716;SDS011;22094;52.130;5.598;2023-09-07T13:42:21;7.60;;;3.40;;
23716;SDS011;22094;52.130;5.598;2023-09-07T13:44:47;3.38;;;3.13;;
23716;SDS011;22094;52.130;5.598;2023-09-07T13:47:14;3.75;;;3.20;;
23716;SDS011;22094;52.130;5.598;2023-09-07T13:49:40;4.50;;;3.20;;
23716;SDS011;22094;52.130;5.598;2023-09-07T13:52:05;6.03;;;3.03;;
23716;SDS011;22094;52.130;5.598;2023-09-07T13:54:31;3.38;;;3.08;;
23716;SDS011;22094;52.130;5.598;2023-09-07T13:56:57;4.63;;;2.58;;
23716;SDS011;22094;52.130;5.598;2023-09-07T13:59:22;7.80;;;3.40;;
23716;SDS011;22094;52.130;5.598;2023-09-07T14:01:50;3.92;;;3.13;;
23716;SDS011;22094;52.130;5.598;2023-09-07T14:04:17;5.18;;;2.90;;
23716;SDS011;22094;52.130;5.598;2023-09-07T14:06:42;4.75;;;3.15;;
23716;SDS011;22094;52.130;5.598;2023-09-07T14:09:08;4.43;;;3.13;;
23716;SDS011;22094;52.130;5.598;2023-09-07T14:11:34;7.07;;;3.00;;
23716;SDS011;22094;52.130;5.598;2023-09-07T14:13:59;4.45;;;2.90;;
23716;SDS011;22094;52.130;5.598;2023-09-07T14:16:25;4.70;;;3.10;;
23716;SDS011;22094;52.130;5.598;2023-09-07T14:18:51;3.78;;;3.25;;
23716;SDS011;22094;52.130;5.598;2023-09-07T14:21:16;9.15;;;3.33;;
23716;SDS011;22094;52.130;5.598;2023-09-07T14:23:43;3.05;;;2.80;;
23716;SDS011;22094;52.130;5.598;2023-09-07T14:26:09;3.92;;;2.83;;
23716;SDS011;22094;52.130;5.598;2023-09-07T14:28:35;4.25;;;2.90;;
23716;SDS011;22094;52.130;5.598;2023-09-07T14:31:02;3.83;;;2.90;;
23716;SDS011;22094;52.130;5.598;2023-09-07T14:33:31;3.65;;;3.15;;
23716;SDS011;22094;52.130;5.598;2023-09-07T14:35:57;3.47;;;2.72;;